CSZ2364 ZJHK-ZSPD
Flight info
| Callsign | CSZ2364 |
|---|---|
| Flight time | N/A |
| Altitude | 35100 |
| Route | AGTEL9XD AGTEL W71 LH DCT GYA A599 POU G471 XEBUL DCT ODOPI DCT AKAVO DCT UPNUG W76 AREPI B221 SHZ W58 XSY |
| Aircraft | B738/M-SDE2E3FGHIRWXY/LB1 |
Departure
| Time | 2026-05-06 10:57 |
|---|---|
| Airport | Haikou Meilan International Airport (ZJHK) |
Arrival
| Time | N/A |
|---|---|
| Airport | Shanghai Pudong International Airport (ZSPD) |
| Time | Latitude | Longitude | Altitude | Speed | Heading |
|---|---|---|---|---|---|
| 2026-05-06 10:20 | 19.93989 | 110.45938 | 84 ft | 0 kts | 360° |
| 2026-05-06 10:42 | 19.93977 | 110.45938 | 84 ft | 2 kts | 360° |
| 2026-05-06 10:42 | 19.93962 | 110.45938 | 84 ft | 2 kts | 360° |
| 2026-05-06 10:42 | 19.93946 | 110.45938 | 84 ft | 2 kts | 360° |
| 2026-05-06 10:43 | 19.93931 | 110.45938 | 85 ft | 2 kts | 0° |
| 2026-05-06 10:43 | 19.93916 | 110.45936 | 85 ft | 2 kts | 27° |
| 2026-05-06 10:43 | 19.93905 | 110.45926 | 85 ft | 2 kts | 53° |
| 2026-05-06 10:44 | 19.93898 | 110.45904 | 86 ft | 1 kts | 94° |
| 2026-05-06 10:44 | 19.93898 | 110.45899 | 87 ft | 0 kts | 90° |
| 2026-05-06 10:44 | 19.93898 | 110.45900 | 87 ft | 0 kts | 90° |
| 2026-05-06 10:46 | 19.93898 | 110.45908 | 86 ft | 3 kts | 90° |
| 2026-05-06 10:46 | 19.93893 | 110.45951 | 84 ft | 7 kts | 114° |
| 2026-05-06 10:47 | 19.93842 | 110.45973 | 81 ft | 8 kts | 178° |
| 2026-05-06 10:47 | 19.93773 | 110.45973 | 78 ft | 9 kts | 185° |
| 2026-05-06 10:47 | 19.93734 | 110.45931 | 78 ft | 8 kts | 261° |
| 2026-05-06 10:47 | 19.93732 | 110.45874 | 78 ft | 7 kts | 269° |
| 2026-05-06 10:48 | 19.93732 | 110.45815 | 78 ft | 8 kts | 270° |
| 2026-05-06 10:48 | 19.93732 | 110.45737 | 77 ft | 12 kts | 270° |
| 2026-05-06 10:48 | 19.93732 | 110.45623 | 71 ft | 18 kts | 270° |
| 2026-05-06 10:48 | 19.93731 | 110.45479 | 71 ft | 19 kts | 269° |
| 2026-05-06 10:49 | 19.93730 | 110.45346 | 71 ft | 16 kts | 270° |
| 2026-05-06 10:49 | 19.93730 | 110.45232 | 72 ft | 14 kts | 270° |
| 2026-05-06 10:49 | 19.93730 | 110.45129 | 73 ft | 13 kts | 270° |
| 2026-05-06 10:49 | 19.93730 | 110.45042 | 73 ft | 8 kts | 270° |
| 2026-05-06 10:50 | 19.93749 | 110.44997 | 73 ft | 6 kts | 331° |
| 2026-05-06 10:50 | 19.93790 | 110.44989 | 74 ft | 6 kts | 359° |
| 2026-05-06 10:50 | 19.93837 | 110.44988 | 74 ft | 7 kts | 360° |
| 2026-05-06 10:50 | 19.93888 | 110.44988 | 76 ft | 7 kts | 360° |
| 2026-05-06 10:51 | 19.93950 | 110.44988 | 77 ft | 10 kts | 359° |
| 2026-05-06 10:51 | 19.94037 | 110.44988 | 75 ft | 15 kts | 0° |
| 2026-05-06 10:51 | 19.94162 | 110.44988 | 74 ft | 20 kts | 359° |
| 2026-05-06 10:51 | 19.94324 | 110.44988 | 74 ft | 24 kts | 360° |
| 2026-05-06 10:52 | 19.94485 | 110.44987 | 77 ft | 21 kts | 360° |
| 2026-05-06 10:52 | 19.94638 | 110.44988 | 72 ft | 23 kts | 359° |
| 2026-05-06 10:52 | 19.94804 | 110.44986 | 62 ft | 24 kts | 359° |
| 2026-05-06 10:52 | 19.94938 | 110.44984 | 60 ft | 11 kts | 352° |
| 2026-05-06 10:53 | 19.94992 | 110.44941 | 61 ft | 9 kts | 309° |
| 2026-05-06 10:53 | 19.95036 | 110.44886 | 61 ft | 10 kts | 310° |
| 2026-05-06 10:53 | 19.95087 | 110.44827 | 61 ft | 10 kts | 328° |
| 2026-05-06 10:53 | 19.95153 | 110.44818 | 60 ft | 9 kts | 359° |
| 2026-05-06 10:54 | 19.95209 | 110.44818 | 61 ft | 6 kts | 359° |
| 2026-05-06 10:54 | 19.95238 | 110.44818 | 62 ft | 1 kts | 360° |
| 2026-05-06 10:54 | 19.95247 | 110.44818 | 61 ft | 0 kts | 0° |
| 2026-05-06 10:55 | 19.95250 | 110.44818 | 61 ft | 1 kts | 0° |
| 2026-05-06 10:55 | 19.95274 | 110.44818 | 61 ft | 5 kts | 1° |
| 2026-05-06 10:55 | 19.95321 | 110.44835 | 60 ft | 9 kts | 36° |
| 2026-05-06 10:55 | 19.95362 | 110.44877 | 58 ft | 6 kts | 57° |
| 2026-05-06 10:56 | 19.95372 | 110.44926 | 58 ft | 6 kts | 88° |
| 2026-05-06 10:56 | 19.95372 | 110.44933 | 57 ft | 0 kts | 89° |
| 2026-05-06 10:56 | 19.95373 | 110.44971 | 57 ft | 22 kts | 89° |
| 2026-05-06 10:56 | 19.95373 | 110.45374 | 63 ft | 83 kts | 90° |
| 2026-05-06 10:57 | 19.95375 | 110.46179 | 63 ft | 134 kts | 90° |
| 2026-05-06 10:57 | 19.95374 | 110.47318 | 204 ft | 161 kts | 90° |
| 2026-05-06 10:57 | 19.95398 | 110.48498 | 694 ft | 164 kts | 89° |
| 2026-05-06 10:57 | 19.95753 | 110.49646 | 1159 ft | 175 kts | 53° |
| 2026-05-06 10:58 | 19.96773 | 110.50361 | 1703 ft | 183 kts | 21° |
| 2026-05-06 10:58 | 19.98054 | 110.50493 | 2161 ft | 194 kts | 351° |
| 2026-05-06 10:58 | 19.99280 | 110.49867 | 2698 ft | 196 kts | 316° |
| 2026-05-06 10:58 | 20.00294 | 110.48954 | 3284 ft | 193 kts | 320° |
| 2026-05-06 10:59 | 20.01278 | 110.47940 | 3647 ft | 204 kts | 314° |
| 2026-05-06 10:59 | 20.02515 | 110.47125 | 3904 ft | 220 kts | 341° |
| 2026-05-06 10:59 | 20.04058 | 110.46681 | 4240 ft | 238 kts | 348° |
| 2026-05-06 10:59 | 20.05730 | 110.46224 | 4616 ft | 254 kts | 343° |
| 2026-05-06 11:00 | 20.07426 | 110.45652 | 5222 ft | 259 kts | 333° |
| 2026-05-06 11:00 | 20.08902 | 110.44553 | 5926 ft | 258 kts | 319° |
| 2026-05-06 11:00 | 20.10326 | 110.43390 | 6630 ft | 260 kts | 326° |
| 2026-05-06 11:00 | 20.11933 | 110.42488 | 7341 ft | 262 kts | 335° |
| 2026-05-06 11:01 | 20.13650 | 110.41783 | 8019 ft | 265 kts | 339° |
| 2026-05-06 11:01 | 20.15381 | 110.41153 | 8712 ft | 267 kts | 340° |
| 2026-05-06 11:01 | 20.17153 | 110.40521 | 9408 ft | 270 kts | 339° |
| 2026-05-06 11:01 | 20.18960 | 110.39866 | 9725 ft | 279 kts | 339° |
| 2026-05-06 11:02 | 20.20857 | 110.39162 | 9788 ft | 288 kts | 339° |
| 2026-05-06 11:02 | 20.22758 | 110.38447 | 9789 ft | 288 kts | 338° |
| 2026-05-06 11:02 | 20.24634 | 110.37748 | 9789 ft | 283 kts | 341° |
| 2026-05-06 11:02 | 20.26530 | 110.37217 | 9788 ft | 273 kts | 344° |
| 2026-05-06 11:03 | 20.28341 | 110.36720 | 9794 ft | 266 kts | 342° |
| 2026-05-06 11:03 | 20.30137 | 110.36162 | 9800 ft | 266 kts | 341° |
| 2026-05-06 11:03 | 20.31952 | 110.35551 | 9810 ft | 277 kts | 340° |
| 2026-05-06 11:03 | 20.33863 | 110.34890 | 9810 ft | 296 kts | 340° |
| 2026-05-06 11:04 | 20.35852 | 110.34203 | 10396 ft | 302 kts | 340° |
| 2026-05-06 11:04 | 20.37899 | 110.33498 | 10730 ft | 319 kts | 340° |
| 2026-05-06 11:04 | 20.40071 | 110.32750 | 11141 ft | 332 kts | 340° |
| 2026-05-06 11:04 | 20.42327 | 110.31975 | 11470 ft | 348 kts | 340° |
| 2026-05-06 11:05 | 20.44693 | 110.31162 | 11865 ft | 360 kts | 340° |
| 2026-05-06 11:05 | 20.47076 | 110.30344 | 12539 ft | 363 kts | 340° |
| 2026-05-06 11:05 | 20.49512 | 110.29588 | 13187 ft | 367 kts | 345° |
| 2026-05-06 11:05 | 20.52068 | 110.29249 | 13831 ft | 373 kts | 356° |
| 2026-05-06 11:06 | 20.54700 | 110.29311 | 14481 ft | 378 kts | 1° |
| 2026-05-06 11:06 | 20.57332 | 110.29540 | 15109 ft | 383 kts | 3° |
| 2026-05-06 11:06 | 20.59994 | 110.29813 | 15737 ft | 387 kts | 3° |
| 2026-05-06 11:06 | 20.62684 | 110.30072 | 16335 ft | 391 kts | 2° |
| 2026-05-06 11:07 | 20.65410 | 110.30303 | 16935 ft | 394 kts | 2° |
| 2026-05-06 11:07 | 20.68160 | 110.30510 | 17504 ft | 398 kts | 1° |
| 2026-05-06 11:07 | 20.70946 | 110.30703 | 18110 ft | 401 kts | 1° |
| 2026-05-06 11:07 | 20.73773 | 110.30890 | 18685 ft | 404 kts | 1° |
| 2026-05-06 11:08 | 20.76569 | 110.31072 | 19242 ft | 407 kts | 1° |
| 2026-05-06 11:08 | 20.79427 | 110.31258 | 19793 ft | 411 kts | 1° |
| 2026-05-06 11:08 | 20.82278 | 110.31444 | 20340 ft | 413 kts | 1° |
| 2026-05-06 11:08 | 20.85143 | 110.31631 | 20874 ft | 416 kts | 1° |
| 2026-05-06 11:09 | 20.88042 | 110.31820 | 21379 ft | 419 kts | 1° |
| 2026-05-06 11:09 | 20.90987 | 110.32013 | 21875 ft | 422 kts | 1° |
| 2026-05-06 11:09 | 20.93949 | 110.32207 | 22384 ft | 425 kts | 1° |
| 2026-05-06 11:09 | 20.96889 | 110.32401 | 22872 ft | 427 kts | 1° |
| 2026-05-06 11:10 | 20.99903 | 110.32598 | 23356 ft | 430 kts | 1° |
| 2026-05-06 11:10 | 21.02893 | 110.32781 | 23812 ft | 433 kts | 1° |
| 2026-05-06 11:10 | 21.05942 | 110.32964 | 24287 ft | 436 kts | 2° |
| 2026-05-06 11:10 | 21.08953 | 110.33298 | 24742 ft | 440 kts | 7° |
| 2026-05-06 11:11 | 21.11956 | 110.34066 | 25186 ft | 445 kts | 16° |
| 2026-05-06 11:11 | 21.14827 | 110.35371 | 25643 ft | 450 kts | 26° |
| 2026-05-06 11:11 | 21.17474 | 110.37179 | 26071 ft | 456 kts | 35° |
| 2026-05-06 11:11 | 21.19892 | 110.39413 | 26503 ft | 460 kts | 41° |
| 2026-05-06 11:12 | 21.22171 | 110.41882 | 26920 ft | 463 kts | 45° |
| 2026-05-06 11:12 | 21.24352 | 110.44398 | 27328 ft | 466 kts | 45° |
| 2026-05-06 11:12 | 21.26545 | 110.46966 | 27729 ft | 469 kts | 45° |
| 2026-05-06 11:12 | 21.28760 | 110.49544 | 28164 ft | 470 kts | 45° |
| 2026-05-06 11:13 | 21.31010 | 110.52131 | 28570 ft | 473 kts | 45° |
| 2026-05-06 11:13 | 21.33289 | 110.54720 | 28966 ft | 475 kts | 44° |
| 2026-05-06 11:13 | 21.35568 | 110.57281 | 29329 ft | 478 kts | 44° |
| 2026-05-06 11:13 | 21.37864 | 110.59838 | 29687 ft | 481 kts | 44° |
| 2026-05-06 11:14 | 21.40190 | 110.62415 | 30199 ft | 480 kts | 43° |
| 2026-05-06 11:14 | 21.42532 | 110.65000 | 30821 ft | 476 kts | 43° |
| 2026-05-06 11:14 | 21.44848 | 110.67551 | 31234 ft | 477 kts | 43° |
| 2026-05-06 11:14 | 21.47131 | 110.70062 | 31714 ft | 476 kts | 43° |
| 2026-05-06 11:15 | 21.49440 | 110.72601 | 32163 ft | 475 kts | 43° |
| 2026-05-06 11:15 | 21.51764 | 110.75155 | 32603 ft | 475 kts | 43° |
| 2026-05-06 11:15 | 21.54062 | 110.77681 | 33070 ft | 474 kts | 43° |
| 2026-05-06 11:15 | 21.56363 | 110.80210 | 33604 ft | 471 kts | 43° |
| 2026-05-06 11:16 | 21.58646 | 110.82723 | 34074 ft | 470 kts | 43° |
| 2026-05-06 11:16 | 21.60919 | 110.85224 | 34503 ft | 469 kts | 43° |
| 2026-05-06 11:16 | 21.63201 | 110.87736 | 34876 ft | 470 kts | 43° |